createdAt,value
2022-08-05T00:01:35.574Z,19.23
2022-08-05T00:04:05.195Z,19.21
2022-08-05T00:06:36.356Z,19.18
2022-08-05T00:09:05.117Z,19.20
2022-08-05T00:11:47.390Z,19.19
2022-08-05T00:14:18.419Z,19.20
2022-08-05T00:16:52.712Z,19.20
2022-08-05T00:19:22.426Z,19.17
2022-08-05T00:21:50.286Z,19.15
2022-08-05T00:24:19.341Z,19.08
2022-08-05T00:26:53.256Z,19.06
2022-08-05T00:29:22.583Z,19.00
2022-08-05T00:32:13.476Z,19.00
2022-08-05T00:35:03.713Z,18.93
2022-08-05T00:37:51.302Z,18.93
2022-08-05T00:40:28.219Z,18.89
2022-08-05T00:43:00.985Z,18.88
2022-08-05T00:45:38.426Z,18.89
2022-08-05T00:48:18.347Z,18.82
2022-08-05T00:50:55.745Z,18.75
2022-08-05T00:53:59.797Z,18.77
2022-08-05T00:56:11.358Z,18.73
2022-08-05T00:58:39.552Z,18.74
2022-08-05T01:01:12.188Z,18.73
2022-08-05T01:03:41.514Z,18.71
2022-08-05T01:06:14.319Z,18.69
2022-08-05T01:08:44.657Z,18.66
2022-08-05T01:11:37.331Z,18.61
2022-08-05T01:14:28.714Z,18.63
2022-08-05T01:17:10.951Z,18.61
2022-08-05T01:20:00.912Z,18.61
2022-08-05T01:23:34.975Z,18.66
2022-08-05T01:26:37.420Z,18.70
2022-08-05T01:29:16.037Z,18.72
2022-08-05T01:31:54.819Z,18.75
2022-08-05T01:34:27.131Z,18.77
2022-08-05T01:37:56.908Z,18.80
2022-08-05T01:40:29.553Z,18.80
2022-08-05T01:42:59.138Z,18.81
2022-08-05T01:45:27.938Z,18.81
2022-08-05T01:48:03.683Z,18.76
2022-08-05T01:50:40.393Z,18.78
2022-08-05T01:53:56.928Z,18.77
2022-08-05T01:56:09.646Z,18.72
2022-08-05T01:58:44.666Z,18.76
2022-08-05T02:01:23.328Z,18.76
2022-08-05T02:03:53.511Z,18.73
2022-08-05T02:06:37.252Z,18.74
2022-08-05T02:09:07.298Z,18.75
2022-08-05T02:12:04.643Z,18.74
2022-08-05T02:15:12.295Z,18.69
2022-08-05T02:18:31.768Z,18.69
2022-08-05T02:20:52.419Z,18.68
2022-08-05T02:23:26.018Z,18.64
2022-08-05T02:25:57.278Z,18.59
2022-08-05T02:28:32.089Z,18.58
2022-08-05T02:31:08.309Z,18.58
2022-08-05T02:33:59.936Z,18.53
2022-08-05T02:36:31.237Z,18.50
2022-08-05T02:39:02.041Z,18.50
2022-08-05T02:41:43.028Z,18.50
2022-08-05T02:44:19.507Z,18.49
2022-08-05T02:46:58.837Z,18.49
2022-08-05T02:49:37.048Z,18.50
2022-08-05T02:52:29.371Z,18.46
2022-08-05T02:55:05.398Z,18.43
2022-08-05T02:58:11.988Z,18.40
2022-08-05T03:00:27.971Z,18.41
2022-08-05T03:02:59.376Z,18.40
2022-08-05T03:06:55.502Z,18.39
2022-08-05T03:08:16.701Z,18.35
2022-08-05T03:11:55.322Z,18.37
2022-08-05T03:13:51.581Z,18.40
2022-08-05T03:16:30.552Z,18.43
2022-08-05T03:19:00.981Z,18.44
2022-08-05T03:21:33.185Z,18.45
2022-08-05T03:24:11.655Z,18.50
2022-08-05T03:26:41.165Z,18.53
2022-08-05T03:29:13.235Z,18.56
2022-08-05T03:31:56.733Z,18.55
2022-08-05T03:34:27.232Z,18.59
2022-08-05T03:36:54.926Z,18.64
2022-08-05T03:39:27.276Z,18.62
2022-08-05T03:41:56.761Z,18.63
2022-08-05T03:44:26.190Z,18.65
2022-08-05T03:47:10.013Z,18.70
2022-08-05T03:49:51.242Z,18.65
2022-08-05T03:55:00.031Z,18.71
2022-08-05T03:56:00.856Z,18.69
2022-08-05T03:58:29.247Z,18.84
2022-08-05T04:00:59.903Z,18.91
2022-08-05T04:03:35.670Z,18.86
2022-08-05T04:06:08.757Z,18.91
2022-08-05T04:08:37.348Z,19.03
2022-08-05T04:11:08.559Z,19.11
2022-08-05T04:13:51.201Z,19.15
2022-08-05T04:16:32.323Z,19.17
2022-08-05T04:19:00.697Z,19.25
2022-08-05T04:22:09.882Z,19.35
2022-08-05T04:24:22.558Z,19.36
2022-08-05T04:26:50.962Z,19.42
2022-08-05T04:29:22.516Z,19.45
2022-08-05T04:31:56.840Z,19.35
2022-08-05T04:34:33.909Z,19.55
2022-08-05T04:37:05.865Z,19.59
2022-08-05T04:39:43.757Z,19.59
2022-08-05T04:42:12.305Z,19.78
2022-08-05T04:44:48.599Z,19.68
2022-08-05T04:47:21.703Z,19.89
2022-08-05T04:50:11.285Z,19.98
2022-08-05T04:52:51.603Z,20.24
2022-08-05T04:56:00.067Z,20.28
2022-08-05T04:58:21.622Z,20.50
2022-08-05T05:00:50.578Z,20.58
2022-08-05T05:03:20.443Z,20.71
2022-08-05T05:06:40.671Z,20.82
2022-08-05T05:08:42.766Z,20.77
2022-08-05T05:11:10.875Z,21.06
2022-08-05T05:13:43.811Z,21.10
2022-08-05T05:16:16.931Z,21.23
2022-08-05T05:19:17.730Z,21.35
2022-08-05T05:21:41.589Z,21.50
2022-08-05T05:24:14.458Z,21.61
2022-08-05T05:26:45.799Z,21.66
2022-08-05T05:29:16.033Z,21.78
2022-08-05T05:31:46.219Z,21.85
2022-08-05T05:34:14.336Z,21.94
2022-08-05T05:36:43.802Z,22.04
2022-08-05T05:39:13.608Z,22.07
2022-08-05T05:41:42.133Z,22.07
2022-08-05T05:44:36.984Z,22.13
2022-08-05T05:46:58.542Z,22.12
2022-08-05T05:49:33.080Z,22.08
2022-08-05T05:52:06.068Z,22.01
2022-08-05T05:54:50.157Z,22.13
2022-08-05T05:57:21.296Z,22.29
2022-08-05T05:59:49.279Z,22.36
2022-08-05T06:02:36.683Z,22.57
2022-08-05T06:05:10.366Z,22.71
2022-08-05T06:08:01.282Z,22.97
2022-08-05T06:10:36.321Z,22.92
2022-08-05T06:13:05.371Z,22.96
2022-08-05T06:16:27.569Z,23.06
2022-08-05T06:18:21.485Z,23.13
2022-08-05T06:21:00.303Z,23.11
2022-08-05T06:23:43.495Z,23.17
2022-08-05T06:26:21.454Z,23.27
2022-08-05T06:28:52.556Z,23.43
2022-08-05T06:31:22.251Z,23.40
2022-08-05T06:34:07.817Z,23.46
2022-08-05T06:36:37.415Z,23.57
2022-08-05T06:39:27.282Z,23.92
2022-08-05T06:42:04.011Z,24.03
2022-08-05T06:44:32.705Z,23.92
2022-08-05T06:47:02.136Z,24.03
2022-08-05T06:50:01.648Z,24.18
2022-08-05T06:52:37.713Z,24.09
2022-08-05T06:55:07.048Z,24.08
2022-08-05T06:57:57.303Z,24.12
2022-08-05T07:00:26.692Z,24.08
2022-08-05T07:03:00.433Z,24.02
2022-08-05T07:05:37.142Z,24.01
2022-08-05T07:08:07.062Z,24.10
2022-08-05T07:10:39.509Z,24.26
2022-08-05T07:13:59.358Z,24.23
2022-08-05T07:17:59.331Z,24.39
2022-08-05T07:22:28.890Z,24.45
2022-08-05T07:25:23.191Z,24.59
2022-08-05T07:27:58.022Z,24.57
2022-08-05T07:30:34.466Z,24.59
2022-08-05T07:33:15.495Z,24.79
2022-08-05T07:36:03.520Z,24.77
2022-08-05T07:38:43.574Z,24.81
2022-08-05T07:42:13.588Z,24.84
2022-08-05T07:44:19.184Z,24.90
2022-08-05T07:46:49.281Z,24.85
2022-08-05T07:49:18.332Z,24.85
2022-08-05T07:51:54.674Z,24.89
2022-08-05T07:54:31.305Z,24.77
2022-08-05T07:57:14.790Z,24.79
2022-08-05T07:59:51.146Z,24.79
2022-08-05T08:02:26.792Z,24.82
2022-08-05T08:05:01.316Z,24.85
2022-08-05T08:07:29.362Z,24.85
2022-08-05T08:10:07.997Z,24.97
2022-08-05T08:12:48.939Z,24.96
2022-08-05T08:15:37.378Z,24.98
2022-08-05T08:18:13.781Z,25.09
2022-08-05T08:21:02.801Z,25.15
2022-08-05T08:24:03.315Z,25.22
2022-08-05T08:26:27.087Z,25.26
2022-08-05T08:29:09.719Z,25.30
2022-08-05T08:31:48.911Z,25.47
2022-08-05T08:34:30.602Z,25.55
2022-08-05T08:37:03.302Z,25.64
2022-08-05T08:39:37.644Z,25.73
2022-08-05T08:42:32.292Z,25.82
2022-08-05T08:45:22.265Z,25.85
2022-08-05T08:48:12.497Z,25.87
2022-08-05T08:51:03.832Z,25.91
2022-08-05T08:53:24.981Z,25.90
2022-08-05T08:56:03.405Z,26.05
2022-08-05T08:58:43.081Z,26.25
2022-08-05T09:01:16.391Z,26.33
2022-08-05T09:03:54.362Z,26.33
2022-08-05T09:06:30.774Z,26.47
2022-08-05T09:09:01.376Z,26.57
2022-08-05T09:11:50.806Z,26.54
2022-08-05T09:14:56.898Z,26.43
2022-08-05T09:17:40.080Z,26.43
2022-08-05T09:20:02.890Z,26.58
2022-08-05T09:23:09.190Z,26.64
2022-08-05T09:26:00.819Z,26.67
2022-08-05T09:28:34.391Z,26.76
2022-08-05T09:31:23.417Z,26.78
2022-08-05T09:34:00.882Z,26.87
2022-08-05T09:36:54.593Z,26.93
2022-08-05T09:39:41.917Z,27.01
2022-08-05T09:42:23.608Z,27.07
2022-08-05T09:44:57.485Z,27.08
2022-08-05T09:47:46.531Z,26.95
2022-08-05T09:50:38.000Z,26.89
2022-08-05T09:53:06.998Z,26.96
2022-08-05T09:55:57.572Z,27.09
2022-08-05T09:58:29.066Z,27.20
2022-08-05T10:01:14.616Z,27.29
2022-08-05T10:04:11.018Z,27.38
2022-08-05T10:06:41.350Z,27.43
2022-08-05T10:09:27.568Z,27.47
2022-08-05T10:12:31.697Z,27.54
2022-08-05T10:15:17.356Z,27.56
2022-08-05T10:18:22.449Z,27.51
2022-08-05T10:21:08.456Z,27.52
2022-08-05T10:23:59.824Z,27.51
2022-08-05T10:26:31.670Z,27.58
2022-08-05T10:29:00.734Z,27.64
2022-08-05T10:32:54.222Z,27.71
2022-08-05T10:34:19.150Z,27.79
2022-08-05T10:36:53.722Z,27.84
2022-08-05T10:40:03.196Z,27.94
2022-08-05T10:42:33.567Z,28.04
2022-08-05T10:45:21.599Z,28.11
2022-08-05T10:48:27.651Z,28.23
2022-08-05T10:50:59.888Z,28.28
2022-08-05T10:53:37.997Z,28.22
2022-08-05T10:56:14.710Z,28.12
2022-08-05T10:58:53.264Z,28.09
2022-08-05T11:02:03.850Z,27.93
2022-08-05T11:04:43.420Z,27.89
2022-08-05T11:07:16.173Z,27.96
2022-08-05T11:09:51.885Z,27.95
2022-08-05T11:12:45.453Z,27.91
2022-08-05T11:15:59.362Z,27.88
2022-08-05T11:18:34.373Z,27.93
2022-08-05T11:21:11.398Z,28.00
2022-08-05T11:24:03.812Z,28.12
2022-08-05T11:26:43.174Z,28.33
2022-08-05T11:29:42.430Z,28.54
2022-08-05T11:32:30.411Z,28.68
2022-08-05T11:34:58.196Z,28.76
2022-08-05T11:38:29.335Z,28.75
2022-08-05T11:41:34.170Z,28.67
2022-08-05T11:44:40.817Z,28.57
2022-08-05T11:47:10.868Z,28.48
2022-08-05T11:49:43.277Z,28.34
2022-08-05T11:52:29.165Z,28.24
2022-08-05T11:54:59.186Z,28.16
2022-08-05T11:58:08.423Z,28.15
2022-08-05T12:00:31.550Z,28.26
2022-08-05T12:03:29.243Z,28.35
2022-08-05T12:06:05.930Z,28.49
2022-08-05T12:08:51.566Z,28.65
2022-08-05T12:11:28.332Z,28.74
2022-08-05T12:14:10.369Z,28.84
2022-08-05T12:16:45.247Z,28.96
2022-08-05T12:20:26.548Z,29.04
2022-08-05T12:22:09.602Z,29.13
2022-08-05T12:24:49.575Z,29.18
2022-08-05T12:27:26.952Z,29.24
2022-08-05T12:30:08.576Z,29.35
2022-08-05T12:32:46.459Z,29.41
2022-08-05T12:35:21.825Z,29.46
2022-08-05T12:37:50.264Z,29.62
2022-08-05T12:40:26.406Z,29.83
2022-08-05T12:42:56.164Z,29.90
2022-08-05T12:45:23.803Z,29.95
2022-08-05T12:48:27.493Z,30.01
2022-08-05T12:52:11.131Z,30.15
2022-08-05T12:54:14.695Z,30.13
2022-08-05T12:56:52.416Z,30.06
2022-08-05T13:00:08.785Z,29.90
2022-08-05T13:02:30.204Z,29.65
2022-08-05T13:04:58.840Z,29.77
2022-08-05T13:07:57.483Z,29.90
2022-08-05T13:10:50.461Z,29.95
2022-08-05T13:14:04.667Z,30.07
2022-08-05T13:16:15.392Z,30.03
2022-08-05T13:18:57.652Z,30.06
2022-08-05T13:21:28.230Z,30.23
2022-08-05T13:24:08.715Z,30.32
2022-08-05T13:26:40.291Z,30.41
2022-08-05T13:29:09.155Z,30.45
2022-08-05T13:32:04.427Z,30.52
2022-08-05T13:34:26.443Z,30.61
2022-08-05T13:36:55.511Z,30.74
2022-08-05T13:40:16.595Z,30.80
2022-08-05T13:42:14.670Z,31.07
2022-08-05T13:44:45.959Z,31.12
2022-08-05T13:47:35.670Z,31.32
2022-08-05T13:50:06.607Z,31.28
2022-08-05T13:52:37.548Z,31.08
2022-08-05T13:55:07.408Z,31.22
2022-08-05T13:57:51.483Z,31.25
2022-08-05T14:00:27.642Z,31.31
2022-08-05T14:03:01.083Z,31.41
2022-08-05T14:06:24.522Z,31.26
2022-08-05T14:08:21.168Z,31.02
2022-08-05T14:11:03.271Z,30.99
2022-08-05T14:13:43.941Z,30.66
2022-08-05T14:16:16.787Z,30.42
2022-08-05T14:18:44.844Z,30.34
2022-08-05T14:22:07.325Z,30.19
2022-08-05T14:24:00.626Z,30.13
2022-08-05T14:26:36.741Z,30.00
2022-08-05T14:29:15.985Z,29.82
2022-08-05T14:32:03.183Z,29.69
2022-08-05T14:34:35.219Z,29.65
2022-08-05T14:37:05.022Z,29.62
2022-08-05T14:39:50.133Z,29.60
2022-08-05T14:42:22.082Z,29.55
2022-08-05T14:44:49.730Z,29.56
2022-08-05T14:47:23.980Z,29.66
2022-08-05T14:50:18.133Z,29.70
2022-08-05T14:52:53.605Z,29.56
2022-08-05T14:55:38.378Z,29.52
2022-08-05T14:58:12.235Z,29.63
2022-08-05T15:00:58.914Z,29.70
2022-08-05T15:03:33.738Z,29.79
2022-08-05T15:06:08.270Z,29.89
2022-08-05T15:09:01.576Z,29.93
2022-08-05T15:11:51.240Z,29.82
2022-08-05T15:14:35.937Z,29.73
2022-08-05T15:17:45.109Z,29.62
2022-08-05T15:19:57.973Z,29.58
2022-08-05T15:22:27.288Z,29.57
2022-08-05T15:24:57.975Z,29.57
2022-08-05T15:27:26.022Z,29.51
2022-08-05T15:29:56.573Z,29.47
2022-08-05T15:32:27.485Z,29.49
2022-08-05T15:35:10.041Z,29.45
2022-08-05T15:38:33.159Z,29.43
2022-08-05T15:40:59.392Z,29.34
2022-08-05T15:43:20.280Z,29.28
2022-08-05T15:46:00.488Z,29.28
2022-08-05T15:48:29.526Z,29.25
2022-08-05T15:50:58.039Z,29.24
2022-08-05T15:53:38.581Z,29.18
2022-08-05T15:56:19.670Z,29.10
2022-08-05T15:58:48.272Z,29.07
2022-08-05T16:01:18.014Z,29.09
2022-08-05T16:03:50.451Z,29.13
2022-08-05T16:06:22.997Z,29.14
2022-08-05T16:08:55.245Z,29.17
2022-08-05T16:11:42.743Z,29.19
2022-08-05T16:14:17.349Z,29.22
2022-08-05T16:16:46.654Z,29.19
2022-08-05T16:19:18.820Z,29.17
2022-08-05T16:21:59.950Z,29.16
2022-08-05T16:24:39.930Z,29.15
2022-08-05T16:27:09.785Z,29.10
2022-08-05T16:29:50.219Z,29.06
2022-08-05T16:32:28.729Z,29.03
2022-08-05T16:34:57.488Z,28.97
2022-08-05T16:38:13.677Z,28.91
2022-08-05T16:40:28.802Z,28.81
2022-08-05T16:42:57.119Z,28.76
2022-08-05T16:46:06.860Z,28.71
2022-08-05T16:48:12.164Z,28.65
2022-08-05T16:50:54.065Z,28.59
2022-08-05T16:53:32.061Z,28.52
2022-08-05T16:56:00.927Z,28.48
2022-08-05T16:58:29.878Z,28.44
2022-08-05T17:00:57.635Z,28.46
2022-08-05T17:03:26.761Z,28.43
2022-08-05T17:05:59.364Z,28.42
2022-08-05T17:08:36.018Z,28.38
2022-08-05T17:11:17.292Z,28.34
2022-08-05T17:13:45.920Z,28.27
2022-08-05T17:16:30.143Z,28.20
2022-08-05T17:19:01.693Z,28.14
2022-08-05T17:21:35.458Z,28.10
2022-08-05T17:24:30.146Z,28.05
2022-08-05T17:26:57.330Z,28.00
2022-08-05T17:29:33.288Z,27.94
2022-08-05T17:32:17.048Z,27.87
2022-08-05T17:34:48.163Z,27.82
2022-08-05T17:37:39.494Z,27.75
2022-08-05T17:40:12.163Z,27.67
2022-08-05T17:42:49.690Z,27.61
2022-08-05T17:45:24.322Z,27.55
2022-08-05T17:47:55.732Z,27.48
2022-08-05T17:50:29.570Z,27.42
2022-08-05T17:53:04.686Z,27.36
2022-08-05T17:55:38.255Z,27.28
2022-08-05T17:58:12.599Z,27.20
2022-08-05T18:00:47.828Z,27.12
2022-08-05T18:06:11.145Z,26.90
2022-08-05T18:08:44.789Z,26.77
2022-08-05T18:11:23.795Z,26.68
2022-08-05T18:14:03.222Z,26.58
2022-08-05T18:16:46.760Z,26.52
2022-08-05T18:19:22.747Z,26.41
2022-08-05T18:22:09.499Z,26.34
2022-08-05T18:24:39.940Z,26.25
2022-08-05T18:27:12.711Z,26.19
2022-08-05T18:29:53.482Z,26.12
2022-08-05T18:32:27.653Z,26.05
2022-08-05T18:34:57.616Z,25.99
2022-08-05T18:37:34.913Z,25.93
2022-08-05T18:40:34.646Z,25.88
2022-08-05T18:42:59.769Z,25.84
2022-08-05T18:45:41.623Z,25.81
2022-08-05T18:48:30.688Z,25.76
2022-08-05T18:52:04.052Z,25.72
2022-08-05T18:54:06.243Z,25.67
2022-08-05T18:56:37.159Z,25.63
2022-08-05T18:59:42.873Z,25.58
2022-08-05T19:02:00.523Z,25.54
2022-08-05T19:04:31.091Z,25.51
2022-08-05T19:07:00.335Z,25.51
2022-08-05T19:09:27.992Z,25.49
2022-08-05T19:12:11.929Z,25.45
2022-08-05T19:14:59.824Z,25.42
2022-08-05T19:17:33.795Z,25.40
2022-08-05T19:20:15.109Z,25.38
2022-08-05T19:22:43.373Z,25.38
2022-08-05T19:25:11.269Z,25.36
2022-08-05T19:27:57.468Z,25.33
2022-08-05T19:30:25.165Z,25.30
2022-08-05T19:32:54.247Z,25.27
2022-08-05T19:35:24.836Z,25.25
2022-08-05T19:38:06.037Z,25.23
2022-08-05T19:40:36.065Z,25.23
2022-08-05T19:43:05.325Z,25.21
2022-08-05T19:45:36.846Z,25.19
2022-08-05T19:48:06.112Z,25.15
2022-08-05T19:50:34.595Z,25.07
2022-08-05T19:53:09.743Z,24.98
2022-08-05T19:56:13.829Z,24.90
2022-08-05T19:58:29.410Z,24.83
2022-08-05T20:00:59.532Z,24.77
2022-08-05T20:03:40.727Z,24.74
2022-08-05T20:06:11.893Z,24.67
2022-08-05T20:08:47.563Z,24.65
2022-08-05T20:11:17.995Z,24.61
2022-08-05T20:13:58.539Z,24.59
2022-08-05T20:16:36.164Z,24.58
2022-08-05T20:19:04.585Z,24.57
2022-08-05T20:21:32.670Z,24.55
2022-08-05T20:24:00.786Z,24.53
2022-08-05T20:26:28.426Z,24.50
2022-08-05T20:28:57.436Z,24.43
2022-08-05T20:31:42.737Z,24.38
2022-08-05T20:34:17.112Z,24.30
2022-08-05T20:36:44.785Z,24.23
2022-08-05T20:39:13.535Z,24.18
2022-08-05T20:41:46.377Z,24.13
2022-08-05T20:44:29.156Z,24.09
2022-08-05T20:47:04.626Z,24.06
2022-08-05T20:49:39.336Z,24.01
2022-08-05T20:52:08.178Z,23.95
2022-08-05T20:54:55.537Z,23.92
2022-08-05T20:57:24.821Z,23.87
2022-08-05T21:00:34.797Z,23.85
2022-08-05T21:03:04.326Z,23.84
2022-08-05T21:05:47.901Z,23.76
2022-08-05T21:08:41.594Z,23.74
2022-08-05T21:11:11.603Z,23.70
2022-08-05T21:13:48.413Z,23.66
2022-08-05T21:16:30.218Z,23.60
2022-08-05T21:19:03.491Z,23.56
2022-08-05T21:21:44.139Z,23.50
2022-08-05T21:24:19.620Z,23.42
2022-08-05T21:26:53.510Z,23.38
2022-08-05T21:29:31.687Z,23.34
2022-08-05T21:32:02.157Z,23.29
2022-08-05T21:34:31.609Z,23.26
2022-08-05T21:37:00.725Z,23.20
2022-08-05T21:39:29.743Z,23.13
2022-08-05T21:42:01.438Z,23.09
2022-08-05T21:44:31.651Z,23.02
2022-08-05T21:47:00.151Z,22.95
2022-08-05T21:49:48.331Z,22.89
2022-08-05T21:52:28.538Z,22.85
2022-08-05T21:54:57.817Z,22.83
2022-08-05T21:57:35.730Z,22.81
2022-08-05T22:00:11.797Z,22.80
2022-08-05T22:02:43.203Z,22.75
2022-08-05T22:05:12.239Z,22.70
2022-08-05T22:07:58.130Z,22.68
2022-08-05T22:10:28.078Z,22.67
2022-08-05T22:12:58.833Z,22.67
2022-08-05T22:16:01.622Z,22.65
2022-08-05T22:18:24.866Z,22.64
2022-08-05T22:20:53.991Z,22.63
2022-08-05T22:24:03.201Z,22.62
2022-08-05T22:26:49.721Z,22.57
2022-08-05T22:29:18.977Z,22.51
2022-08-05T22:31:55.341Z,22.48
2022-08-05T22:34:28.632Z,22.47
2022-08-05T22:36:58.485Z,22.47
2022-08-05T22:39:33.215Z,22.45
2022-08-05T22:42:09.898Z,22.44
2022-08-05T22:44:47.024Z,22.41
2022-08-05T22:47:28.936Z,22.39
2022-08-05T22:50:21.040Z,22.37
2022-08-05T22:52:50.417Z,22.35
2022-08-05T22:55:21.502Z,22.37
2022-08-05T22:57:53.504Z,22.40
2022-08-05T23:00:23.840Z,22.42
2022-08-05T23:02:52.928Z,22.43
2022-08-05T23:05:22.218Z,22.43
2022-08-05T23:07:51.100Z,22.44
2022-08-05T23:10:23.690Z,22.44
2022-08-05T23:12:55.151Z,22.45
2022-08-05T23:15:26.921Z,22.46
2022-08-05T23:18:01.154Z,22.48
2022-08-05T23:20:32.348Z,22.50
2022-08-05T23:23:03.394Z,22.51
2022-08-05T23:25:52.859Z,22.48
2022-08-05T23:28:24.083Z,22.43
2022-08-05T23:31:03.698Z,22.37
2022-08-05T23:34:03.692Z,22.32
2022-08-05T23:36:39.752Z,22.28
2022-08-05T23:39:17.260Z,22.25
2022-08-05T23:42:00.246Z,22.24
2022-08-05T23:44:28.040Z,22.21
2022-08-05T23:47:02.634Z,22.18
2022-08-05T23:49:45.743Z,22.17
2022-08-05T23:52:31.802Z,22.18
2022-08-05T23:55:09.104Z,22.16
2022-08-05T23:57:36.906Z,22.14
